sensor_id;sensor_type;location;lat;lon;timestamp;P1;durP1;ratioP1;P2;durP2;ratioP2
7247;SDS011;3665;51.034;13.642;2023-07-30T00:00:26;2.30;;;1.97;;
7247;SDS011;3665;51.034;13.642;2023-07-30T00:05:10;3.20;;;2.30;;
7247;SDS011;3665;51.034;13.642;2023-07-30T00:10:00;2.77;;;1.97;;
7247;SDS011;3665;51.034;13.642;2023-07-30T00:14:48;2.90;;;1.87;;
7247;SDS011;3665;51.034;13.642;2023-07-30T00:19:36;2.53;;;1.90;;
7247;SDS011;3665;51.034;13.642;2023-07-30T00:24:21;2.70;;;2.10;;
7247;SDS011;3665;51.034;13.642;2023-07-30T00:29:14;2.77;;;1.93;;
7247;SDS011;3665;51.034;13.642;2023-07-30T00:33:59;3.30;;;2.20;;
7247;SDS011;3665;51.034;13.642;2023-07-30T00:43:53;2.27;;;2.00;;
7247;SDS011;3665;51.034;13.642;2023-07-30T00:48:39;3.87;;;2.23;;
7247;SDS011;3665;51.034;13.642;2023-07-30T00:53:26;2.40;;;2.20;;
7247;SDS011;3665;51.034;13.642;2023-07-30T00:58:15;3.70;;;2.53;;
7247;SDS011;3665;51.034;13.642;2023-07-30T01:03:03;3.10;;;2.20;;
7247;SDS011;3665;51.034;13.642;2023-07-30T01:07:51;2.40;;;2.20;;
7247;SDS011;3665;51.034;13.642;2023-07-30T01:12:41;2.53;;;2.33;;
7247;SDS011;3665;51.034;13.642;2023-07-30T01:17:28;3.40;;;2.30;;
7247;SDS011;3665;51.034;13.642;2023-07-30T01:22:15;4.80;;;2.60;;
7247;SDS011;3665;51.034;13.642;2023-07-30T01:27:03;3.20;;;2.60;;
7247;SDS011;3665;51.034;13.642;2023-07-30T01:31:52;3.97;;;2.13;;
7247;SDS011;3665;51.034;13.642;2023-07-30T01:36:39;3.53;;;2.30;;
7247;SDS011;3665;51.034;13.642;2023-07-30T01:41:28;3.87;;;2.30;;
7247;SDS011;3665;51.034;13.642;2023-07-30T01:46:15;2.73;;;2.10;;
7247;SDS011;3665;51.034;13.642;2023-07-30T01:51:05;5.00;;;2.33;;
7247;SDS011;3665;51.034;13.642;2023-07-30T01:55:52;2.37;;;2.00;;
7247;SDS011;3665;51.034;13.642;2023-07-30T02:05:42;4.07;;;2.33;;
7247;SDS011;3665;51.034;13.642;2023-07-30T02:10:35;3.43;;;2.00;;
7247;SDS011;3665;51.034;13.642;2023-07-30T02:15:18;2.77;;;1.97;;
7247;SDS011;3665;51.034;13.642;2023-07-30T02:20:16;3.73;;;2.20;;
7247;SDS011;3665;51.034;13.642;2023-07-30T02:25:11;1.93;;;1.53;;
7247;SDS011;3665;51.034;13.642;2023-07-30T02:29:58;2.67;;;1.90;;
7247;SDS011;3665;51.034;13.642;2023-07-30T02:34:47;2.83;;;2.20;;
7247;SDS011;3665;51.034;13.642;2023-07-30T02:39:36;4.23;;;1.87;;
7247;SDS011;3665;51.034;13.642;2023-07-30T02:44:24;2.43;;;1.70;;
7247;SDS011;3665;51.034;13.642;2023-07-30T02:49:10;2.07;;;1.80;;
7247;SDS011;3665;51.034;13.642;2023-07-30T02:54:03;3.13;;;2.20;;
7247;SDS011;3665;51.034;13.642;2023-07-30T02:58:49;2.10;;;1.83;;
7247;SDS011;3665;51.034;13.642;2023-07-30T03:03:34;4.83;;;1.93;;
7247;SDS011;3665;51.034;13.642;2023-07-30T03:08:27;2.03;;;1.70;;
7247;SDS011;3665;51.034;13.642;2023-07-30T03:13:10;1.90;;;1.80;;
7247;SDS011;3665;51.034;13.642;2023-07-30T03:17:58;1.77;;;1.67;;
7247;SDS011;3665;51.034;13.642;2023-07-30T03:22:47;1.97;;;1.87;;
7247;SDS011;3665;51.034;13.642;2023-07-30T03:27:37;4.30;;;2.10;;
7247;SDS011;3665;51.034;13.642;2023-07-30T03:32:24;8.87;;;2.30;;
7247;SDS011;3665;51.034;13.642;2023-07-30T03:37:11;2.60;;;2.17;;
7247;SDS011;3665;51.034;13.642;2023-07-30T03:41:58;3.53;;;1.90;;
7247;SDS011;3665;51.034;13.642;2023-07-30T03:46:46;2.60;;;1.83;;
7247;SDS011;3665;51.034;13.642;2023-07-30T03:51:34;2.33;;;2.10;;
7247;SDS011;3665;51.034;13.642;2023-07-30T03:56:30;3.50;;;1.93;;
7247;SDS011;3665;51.034;13.642;2023-07-30T04:01:31;2.30;;;1.87;;
7247;SDS011;3665;51.034;13.642;2023-07-30T04:06:17;3.60;;;2.03;;
7247;SDS011;3665;51.034;13.642;2023-07-30T04:11:02;3.13;;;1.77;;
7247;SDS011;3665;51.034;13.642;2023-07-30T04:20:54;5.40;;;2.37;;
7247;SDS011;3665;51.034;13.642;2023-07-30T04:25:43;2.73;;;2.27;;
7247;SDS011;3665;51.034;13.642;2023-07-30T04:30:31;2.13;;;1.80;;
7247;SDS011;3665;51.034;13.642;2023-07-30T04:35:19;2.17;;;1.93;;
7247;SDS011;3665;51.034;13.642;2023-07-30T04:40:07;2.00;;;1.60;;
7247;SDS011;3665;51.034;13.642;2023-07-30T04:44:59;2.40;;;1.80;;
7247;SDS011;3665;51.034;13.642;2023-07-30T04:55:23;2.90;;;1.63;;
7247;SDS011;3665;51.034;13.642;2023-07-30T05:00:07;2.57;;;1.77;;
7247;SDS011;3665;51.034;13.642;2023-07-30T05:04:55;3.30;;;1.77;;
7247;SDS011;3665;51.034;13.642;2023-07-30T05:20:09;2.07;;;1.60;;
7247;SDS011;3665;51.034;13.642;2023-07-30T05:24:55;1.90;;;1.80;;
7247;SDS011;3665;51.034;13.642;2023-07-30T05:29:42;2.30;;;1.97;;
7247;SDS011;3665;51.034;13.642;2023-07-30T05:34:31;1.70;;;1.60;;
7247;SDS011;3665;51.034;13.642;2023-07-30T05:39:18;3.83;;;2.00;;
7247;SDS011;3665;51.034;13.642;2023-07-30T05:44:06;2.77;;;1.70;;
7247;SDS011;3665;51.034;13.642;2023-07-30T05:48:54;2.93;;;1.83;;
7247;SDS011;3665;51.034;13.642;2023-07-30T05:54:01;2.37;;;1.83;;
7247;SDS011;3665;51.034;13.642;2023-07-30T05:58:48;1.83;;;1.73;;
7247;SDS011;3665;51.034;13.642;2023-07-30T06:03:36;1.97;;;1.73;;
7247;SDS011;3665;51.034;13.642;2023-07-30T06:13:13;2.07;;;1.87;;
7247;SDS011;3665;51.034;13.642;2023-07-30T06:17:58;2.37;;;1.73;;
7247;SDS011;3665;51.034;13.642;2023-07-30T06:22:51;2.97;;;2.13;;
7247;SDS011;3665;51.034;13.642;2023-07-30T06:27:38;2.87;;;1.90;;
7247;SDS011;3665;51.034;13.642;2023-07-30T06:32:23;2.73;;;2.03;;
7247;SDS011;3665;51.034;13.642;2023-07-30T06:37:12;2.73;;;1.90;;
7247;SDS011;3665;51.034;13.642;2023-07-30T06:41:59;1.70;;;1.60;;
7247;SDS011;3665;51.034;13.642;2023-07-30T06:46:46;2.33;;;1.93;;
7247;SDS011;3665;51.034;13.642;2023-07-30T06:51:44;4.13;;;2.00;;
7247;SDS011;3665;51.034;13.642;2023-07-30T06:56:40;2.10;;;1.90;;
7247;SDS011;3665;51.034;13.642;2023-07-30T07:01:28;2.23;;;2.00;;
7247;SDS011;3665;51.034;13.642;2023-07-30T07:06:14;1.77;;;1.67;;
7247;SDS011;3665;51.034;13.642;2023-07-30T07:16:27;1.97;;;1.77;;
7247;SDS011;3665;51.034;13.642;2023-07-30T07:21:30;2.73;;;1.87;;
7247;SDS011;3665;51.034;13.642;2023-07-30T07:26:15;1.80;;;1.70;;
7247;SDS011;3665;51.034;13.642;2023-07-30T07:31:03;1.57;;;1.47;;
7247;SDS011;3665;51.034;13.642;2023-07-30T07:35:52;2.17;;;1.90;;
7247;SDS011;3665;51.034;13.642;2023-07-30T07:40:56;1.93;;;1.77;;
7247;SDS011;3665;51.034;13.642;2023-07-30T07:45:43;1.97;;;1.70;;
7247;SDS011;3665;51.034;13.642;2023-07-30T07:50:31;2.67;;;1.60;;
7247;SDS011;3665;51.034;13.642;2023-07-30T08:00:22;1.90;;;1.50;;
7247;SDS011;3665;51.034;13.642;2023-07-30T08:05:10;2.40;;;1.60;;
7247;SDS011;3665;51.034;13.642;2023-07-30T08:09:58;1.77;;;1.30;;
7247;SDS011;3665;51.034;13.642;2023-07-30T08:20:22;2.90;;;1.52;;
7247;SDS011;3665;51.034;13.642;2023-07-30T08:25:12;1.90;;;1.60;;
7247;SDS011;3665;51.034;13.642;2023-07-30T08:30:00;2.17;;;1.60;;
7247;SDS011;3665;51.034;13.642;2023-07-30T08:34:48;1.75;;;1.65;;
7247;SDS011;3665;51.034;13.642;2023-07-30T08:39:38;1.73;;;1.58;;
7247;SDS011;3665;51.034;13.642;2023-07-30T08:44:22;1.70;;;1.60;;
7247;SDS011;3665;51.034;13.642;2023-07-30T08:49:12;3.55;;;1.75;;
7247;SDS011;3665;51.034;13.642;2023-07-30T08:59:02;1.50;;;1.40;;
7247;SDS011;3665;51.034;13.642;2023-07-30T09:03:50;1.55;;;1.45;;
7247;SDS011;3665;51.034;13.642;2023-07-30T09:08:38;3.00;;;1.33;;
7247;SDS011;3665;51.034;13.642;2023-07-30T09:13:28;1.92;;;1.48;;
7247;SDS011;3665;51.034;13.642;2023-07-30T09:18:16;1.50;;;1.40;;
7247;SDS011;3665;51.034;13.642;2023-07-30T09:23:04;2.97;;;1.52;;
7247;SDS011;3665;51.034;13.642;2023-07-30T09:28:06;1.80;;;1.70;;
7247;SDS011;3665;51.034;13.642;2023-07-30T09:32:56;2.50;;;1.75;;
7247;SDS011;3665;51.034;13.642;2023-07-30T09:37:42;2.75;;;1.70;;
7247;SDS011;3665;51.034;13.642;2023-07-30T09:42:32;1.88;;;1.70;;
7247;SDS011;3665;51.034;13.642;2023-07-30T09:47:20;2.47;;;1.67;;
7247;SDS011;3665;51.034;13.642;2023-07-30T09:52:08;1.52;;;1.42;;
7247;SDS011;3665;51.034;13.642;2023-07-30T09:57:28;1.77;;;1.67;;
7247;SDS011;3665;51.034;13.642;2023-07-30T10:02:14;1.92;;;1.80;;
7247;SDS011;3665;51.034;13.642;2023-07-30T10:07:06;1.95;;;1.70;;
7247;SDS011;3665;51.034;13.642;2023-07-30T10:12:06;4.13;;;1.92;;
7247;SDS011;3665;51.034;13.642;2023-07-30T10:16:59;1.65;;;1.55;;
7247;SDS011;3665;51.034;13.642;2023-07-30T10:21:44;1.63;;;1.50;;
7247;SDS011;3665;51.034;13.642;2023-07-30T10:26:34;1.83;;;1.55;;
7247;SDS011;3665;51.034;13.642;2023-07-30T10:31:20;1.52;;;1.40;;
7247;SDS011;3665;51.034;13.642;2023-07-30T10:36:30;2.13;;;1.50;;
7247;SDS011;3665;51.034;13.642;2023-07-30T10:41:26;2.92;;;1.48;;
7247;SDS011;3665;51.034;13.642;2023-07-30T10:46:16;2.75;;;1.65;;
7247;SDS011;3665;51.034;13.642;2023-07-30T10:51:04;1.48;;;1.38;;
7247;SDS011;3665;51.034;13.642;2023-07-30T10:55:51;1.77;;;1.30;;
7247;SDS011;3665;51.034;13.642;2023-07-30T11:00:39;1.50;;;1.40;;
7247;SDS011;3665;51.034;13.642;2023-07-30T11:05:27;2.47;;;1.00;;
7247;SDS011;3665;51.034;13.642;2023-07-30T11:15:51;1.23;;;1.10;;
7247;SDS011;3665;51.034;13.642;2023-07-30T11:26:33;4.38;;;1.05;;
7247;SDS011;3665;51.034;13.642;2023-07-30T11:31:20;0.85;;;0.85;;
7247;SDS011;3665;51.034;13.642;2023-07-30T11:36:09;1.63;;;1.10;;
7247;SDS011;3665;51.034;13.642;2023-07-30T11:40:55;1.48;;;0.90;;
7247;SDS011;3665;51.034;13.642;2023-07-30T11:45:45;2.63;;;0.98;;
7247;SDS011;3665;51.034;13.642;2023-07-30T11:50:49;1.17;;;1.10;;
7247;SDS011;3665;51.034;13.642;2023-07-30T11:55:36;3.08;;;0.90;;
7247;SDS011;3665;51.034;13.642;2023-07-30T12:05:58;1.10;;;1.00;;
7247;SDS011;3665;51.034;13.642;2023-07-30T12:11:04;0.80;;;0.80;;
7247;SDS011;3665;51.034;13.642;2023-07-30T12:15:54;1.00;;;1.00;;
7247;SDS011;3665;51.034;13.642;2023-07-30T12:20:39;0.77;;;0.77;;
7247;SDS011;3665;51.034;13.642;2023-07-30T12:30:32;0.82;;;0.82;;
7247;SDS011;3665;51.034;13.642;2023-07-30T12:35:19;0.93;;;0.90;;
7247;SDS011;3665;51.034;13.642;2023-07-30T12:40:07;0.95;;;0.95;;
7247;SDS011;3665;51.034;13.642;2023-07-30T12:50:08;0.88;;;0.88;;
7247;SDS011;3665;51.034;13.642;2023-07-30T12:55:19;0.82;;;0.82;;
7247;SDS011;3665;51.034;13.642;2023-07-30T13:05:46;1.60;;;0.80;;
7247;SDS011;3665;51.034;13.642;2023-07-30T13:10:34;0.82;;;0.70;;
7247;SDS011;3665;51.034;13.642;2023-07-30T13:15:20;2.25;;;1.05;;
7247;SDS011;3665;51.034;13.642;2023-07-30T13:20:09;1.65;;;0.90;;
7247;SDS011;3665;51.034;13.642;2023-07-30T13:24:56;1.70;;;0.80;;
7247;SDS011;3665;51.034;13.642;2023-07-30T13:30:01;1.58;;;1.00;;
7247;SDS011;3665;51.034;13.642;2023-07-30T13:40:07;0.80;;;0.80;;
7247;SDS011;3665;51.034;13.642;2023-07-30T13:50:15;1.35;;;0.75;;
7247;SDS011;3665;51.034;13.642;2023-07-30T13:55:02;0.70;;;0.70;;
7247;SDS011;3665;51.034;13.642;2023-07-30T13:59:51;0.90;;;0.90;;
7247;SDS011;3665;51.034;13.642;2023-07-30T14:09:45;0.82;;;0.80;;
7247;SDS011;3665;51.034;13.642;2023-07-30T14:14:38;1.13;;;0.90;;
7247;SDS011;3665;51.034;13.642;2023-07-30T14:19:53;0.85;;;0.85;;
7247;SDS011;3665;51.034;13.642;2023-07-30T14:24:38;1.08;;;0.82;;
7247;SDS011;3665;51.034;13.642;2023-07-30T14:35:02;1.60;;;1.10;;
7247;SDS011;3665;51.034;13.642;2023-07-30T14:39:51;1.02;;;1.02;;
7247;SDS011;3665;51.034;13.642;2023-07-30T14:44:34;1.80;;;0.93;;
7247;SDS011;3665;51.034;13.642;2023-07-30T14:49:29;0.80;;;0.80;;
7247;SDS011;3665;51.034;13.642;2023-07-30T14:54:17;1.08;;;1.00;;
7247;SDS011;3665;51.034;13.642;2023-07-30T14:59:04;2.83;;;1.23;;
7247;SDS011;3665;51.034;13.642;2023-07-30T15:03:51;3.70;;;1.17;;
7247;SDS011;3665;51.034;13.642;2023-07-30T15:08:38;2.33;;;1.20;;
7247;SDS011;3665;51.034;13.642;2023-07-30T15:23:21;2.60;;;2.07;;
7247;SDS011;3665;51.034;13.642;2023-07-30T15:28:06;2.20;;;1.63;;
7247;SDS011;3665;51.034;13.642;2023-07-30T15:32:51;1.93;;;1.80;;
7247;SDS011;3665;51.034;13.642;2023-07-30T15:37:36;2.13;;;1.50;;
7247;SDS011;3665;51.034;13.642;2023-07-30T15:42:30;1.40;;;1.30;;
7247;SDS011;3665;51.034;13.642;2023-07-30T15:47:23;3.93;;;1.50;;
7247;SDS011;3665;51.034;13.642;2023-07-30T15:52:09;2.63;;;1.10;;
7247;SDS011;3665;51.034;13.642;2023-07-30T15:56:56;2.33;;;1.50;;
7247;SDS011;3665;51.034;13.642;2023-07-30T16:01:43;2.80;;;1.37;;
7247;SDS011;3665;51.034;13.642;2023-07-30T16:06:31;1.70;;;1.57;;
7247;SDS011;3665;51.034;13.642;2023-07-30T16:11:19;2.80;;;2.27;;
7247;SDS011;3665;51.034;13.642;2023-07-30T16:16:09;2.63;;;1.93;;
7247;SDS011;3665;51.034;13.642;2023-07-30T16:21:02;2.90;;;1.40;;
7247;SDS011;3665;51.034;13.642;2023-07-30T16:25:58;2.60;;;1.67;;
7247;SDS011;3665;51.034;13.642;2023-07-30T16:36:26;2.53;;;1.40;;
7247;SDS011;3665;51.034;13.642;2023-07-30T16:41:10;3.33;;;1.83;;
7247;SDS011;3665;51.034;13.642;2023-07-30T16:46:00;2.20;;;2.00;;
7247;SDS011;3665;51.034;13.642;2023-07-30T16:50:47;2.00;;;1.50;;
7247;SDS011;3665;51.034;13.642;2023-07-30T17:01:11;1.73;;;0.90;;
7247;SDS011;3665;51.034;13.642;2023-07-30T17:05:58;1.27;;;0.87;;
7247;SDS011;3665;51.034;13.642;2023-07-30T17:10:47;1.40;;;1.10;;
7247;SDS011;3665;51.034;13.642;2023-07-30T17:15:44;1.50;;;1.40;;
7247;SDS011;3665;51.034;13.642;2023-07-30T17:25:49;1.87;;;1.33;;
7247;SDS011;3665;51.034;13.642;2023-07-30T17:30:47;3.33;;;1.60;;
7247;SDS011;3665;51.034;13.642;2023-07-30T17:35:34;2.83;;;1.40;;
7247;SDS011;3665;51.034;13.642;2023-07-30T17:45:46;1.50;;;1.20;;
7247;SDS011;3665;51.034;13.642;2023-07-30T17:50:47;1.70;;;1.30;;
7247;SDS011;3665;51.034;13.642;2023-07-30T17:55:34;2.20;;;1.63;;
7247;SDS011;3665;51.034;13.642;2023-07-30T18:00:22;1.80;;;1.40;;
7247;SDS011;3665;51.034;13.642;2023-07-30T18:05:20;4.20;;;1.40;;
7247;SDS011;3665;51.034;13.642;2023-07-30T18:10:30;2.47;;;1.60;;
7247;SDS011;3665;51.034;13.642;2023-07-30T18:15:20;1.57;;;1.47;;
7247;SDS011;3665;51.034;13.642;2023-07-30T18:20:08;2.33;;;1.40;;
7247;SDS011;3665;51.034;13.642;2023-07-30T18:24:54;2.67;;;1.50;;
7247;SDS011;3665;51.034;13.642;2023-07-30T18:29:42;2.33;;;1.60;;
7247;SDS011;3665;51.034;13.642;2023-07-30T18:34:33;2.10;;;1.50;;
7247;SDS011;3665;51.034;13.642;2023-07-30T18:39:20;3.17;;;1.60;;
7247;SDS011;3665;51.034;13.642;2023-07-30T18:44:07;1.60;;;1.50;;
7247;SDS011;3665;51.034;13.642;2023-07-30T18:48:56;1.80;;;1.60;;
7247;SDS011;3665;51.034;13.642;2023-07-30T18:53:43;3.03;;;1.33;;
7247;SDS011;3665;51.034;13.642;2023-07-30T18:58:32;1.77;;;1.57;;
7247;SDS011;3665;51.034;13.642;2023-07-30T19:03:19;3.50;;;1.87;;
7247;SDS011;3665;51.034;13.642;2023-07-30T19:08:07;4.17;;;1.93;;
7247;SDS011;3665;51.034;13.642;2023-07-30T19:12:55;2.57;;;1.73;;
7247;SDS011;3665;51.034;13.642;2023-07-30T19:17:42;4.37;;;2.30;;
7247;SDS011;3665;51.034;13.642;2023-07-30T19:22:31;3.63;;;1.90;;
7247;SDS011;3665;51.034;13.642;2023-07-30T19:27:20;3.87;;;2.00;;
7247;SDS011;3665;51.034;13.642;2023-07-30T19:32:21;3.00;;;2.00;;
7247;SDS011;3665;51.034;13.642;2023-07-30T19:48:09;4.20;;;2.17;;
7247;SDS011;3665;51.034;13.642;2023-07-30T20:03:34;4.47;;;2.37;;
7247;SDS011;3665;51.034;13.642;2023-07-30T20:24:41;3.73;;;2.40;;
7247;SDS011;3665;51.034;13.642;2023-07-30T20:29:46;5.33;;;2.77;;
7247;SDS011;3665;51.034;13.642;2023-07-30T20:34:47;4.13;;;2.43;;
7247;SDS011;3665;51.034;13.642;2023-07-30T20:39:34;4.53;;;2.20;;
7247;SDS011;3665;51.034;13.642;2023-07-30T20:44:22;4.53;;;2.30;;
7247;SDS011;3665;51.034;13.642;2023-07-30T20:49:10;5.17;;;2.67;;
7247;SDS011;3665;51.034;13.642;2023-07-30T20:59:21;2.67;;;1.80;;
7247;SDS011;3665;51.034;13.642;2023-07-30T21:04:06;2.13;;;1.90;;
7247;SDS011;3665;51.034;13.642;2023-07-30T21:08:58;3.10;;;2.10;;
7247;SDS011;3665;51.034;13.642;2023-07-30T21:13:44;4.50;;;2.17;;
7247;SDS011;3665;51.034;13.642;2023-07-30T21:18:32;3.23;;;1.90;;
7247;SDS011;3665;51.034;13.642;2023-07-30T21:23:20;2.37;;;1.97;;
7247;SDS011;3665;51.034;13.642;2023-07-30T21:28:07;5.57;;;2.03;;
7247;SDS011;3665;51.034;13.642;2023-07-30T21:38:19;4.53;;;1.90;;
7247;SDS011;3665;51.034;13.642;2023-07-30T21:43:02;3.83;;;1.80;;
7247;SDS011;3665;51.034;13.642;2023-07-30T21:52:56;4.73;;;1.70;;
7247;SDS011;3665;51.034;13.642;2023-07-30T21:57:43;2.90;;;1.60;;
7247;SDS011;3665;51.034;13.642;2023-07-30T22:02:28;2.03;;;1.50;;
7247;SDS011;3665;51.034;13.642;2023-07-30T22:07:12;7.70;;;1.60;;
7247;SDS011;3665;51.034;13.642;2023-07-30T22:12:00;3.30;;;1.30;;
7247;SDS011;3665;51.034;13.642;2023-07-30T22:16:54;2.20;;;1.20;;
7247;SDS011;3665;51.034;13.642;2023-07-30T22:21:37;3.07;;;1.30;;
7247;SDS011;3665;51.034;13.642;2023-07-30T22:26:26;4.47;;;1.50;;
7247;SDS011;3665;51.034;13.642;2023-07-30T22:36:17;3.03;;;1.50;;
7247;SDS011;3665;51.034;13.642;2023-07-30T22:41:06;2.80;;;1.63;;
7247;SDS011;3665;51.034;13.642;2023-07-30T22:45:54;3.77;;;1.67;;
7247;SDS011;3665;51.034;13.642;2023-07-30T22:50:41;4.40;;;1.50;;
7247;SDS011;3665;51.034;13.642;2023-07-30T22:55:29;3.00;;;1.50;;
7247;SDS011;3665;51.034;13.642;2023-07-30T23:00:13;3.83;;;1.70;;
7247;SDS011;3665;51.034;13.642;2023-07-30T23:05:06;2.53;;;1.40;;
7247;SDS011;3665;51.034;13.642;2023-07-30T23:15:14;3.57;;;1.73;;
7247;SDS011;3665;51.034;13.642;2023-07-30T23:20:01;3.17;;;1.43;;
7247;SDS011;3665;51.034;13.642;2023-07-30T23:25:05;5.30;;;1.60;;
7247;SDS011;3665;51.034;13.642;2023-07-30T23:29:55;1.67;;;1.53;;
7247;SDS011;3665;51.034;13.642;2023-07-30T23:34:38;3.43;;;1.47;;
7247;SDS011;3665;51.034;13.642;2023-07-30T23:39:29;2.13;;;1.50;;
7247;SDS011;3665;51.034;13.642;2023-07-30T23:44:13;4.30;;;1.50;;
7247;SDS011;3665;51.034;13.642;2023-07-30T23:49:08;3.13;;;1.30;;
7247;SDS011;3665;51.034;13.642;2023-07-30T23:53:52;2.30;;;1.50;;
7247;SDS011;3665;51.034;13.642;2023-07-30T23:58:42;1.33;;;1.20;;
